createdAt,value
2022-09-04T00:00:08.090Z,98306.22
2022-09-04T00:03:18.763Z,98304.19
2022-09-04T00:06:17.052Z,98297.63
2022-09-04T00:09:18.806Z,98303.63
2022-09-04T00:12:10.320Z,98306.97
2022-09-04T00:15:12.204Z,98317.28
2022-09-04T00:18:10.374Z,98321.34
2022-09-04T00:21:10.808Z,98319.69
2022-09-04T00:24:06.192Z,98320.38
2022-09-04T00:27:03.126Z,98323.78
2022-09-04T00:30:02.068Z,98317.88
2022-09-04T00:33:02.225Z,98320.38
2022-09-04T00:36:00.157Z,98324.69
2022-09-04T00:38:56.931Z,98322.84
2022-09-04T00:42:20.421Z,98329.56
2022-09-04T00:45:26.496Z,98325.59
2022-09-04T00:49:11.504Z,98324.94
2022-09-04T00:52:16.993Z,98341.56
2022-09-04T00:55:37.359Z,98348.66
2022-09-04T00:58:49.188Z,98344.88
2022-09-04T01:01:39.126Z,98340.56
2022-09-04T01:04:51.477Z,98348.09
2022-09-04T01:07:56.731Z,98345.78
2022-09-04T01:11:04.360Z,98351.69
2022-09-04T01:14:13.294Z,98351.59
2022-09-04T01:17:17.673Z,98351.59
2022-09-04T01:20:22.673Z,98360.16
2022-09-04T01:23:37.894Z,98358.19
2022-09-04T01:26:41.393Z,98362.88
2022-09-04T01:29:47.932Z,98363.59
2022-09-04T01:33:04.338Z,98362.78
2022-09-04T01:36:05.426Z,98372.66
2022-09-04T01:38:58.869Z,98373.00
2022-09-04T01:42:02.655Z,98367.66
2022-09-04T01:44:51.868Z,98372.06
2022-09-04T01:47:50.314Z,98368.72
2022-09-04T01:50:45.260Z,98364.03
2022-09-04T01:53:42.055Z,98372.06
2022-09-04T01:56:41.258Z,98369.91
2022-09-04T01:59:44.986Z,98369.06
2022-09-04T02:02:54.664Z,98370.28
2022-09-04T02:06:01.876Z,98375.44
2022-09-04T02:09:12.128Z,98371.91
2022-09-04T02:12:29.246Z,98367.94
2022-09-04T02:15:43.395Z,98363.81
2022-09-04T02:18:48.027Z,98370.16
2022-09-04T02:21:45.483Z,98371.84
2022-09-04T02:24:47.885Z,98370.22
2022-09-04T02:27:49.099Z,98381.88
2022-09-04T02:30:54.229Z,98378.78
2022-09-04T02:33:51.158Z,98379.94
2022-09-04T02:36:50.912Z,98379.13
2022-09-04T02:39:58.566Z,98384.00
2022-09-04T02:43:12.884Z,98381.00
2022-09-04T02:46:13.212Z,98390.38
2022-09-04T02:49:16.114Z,98385.38
2022-09-04T02:52:33.566Z,98390.59
2022-09-04T02:55:45.679Z,98382.78
2022-09-04T02:58:58.847Z,98395.47
2022-09-04T03:01:59.388Z,98388.81
2022-09-04T03:05:00.863Z,98387.50
2022-09-04T03:08:01.254Z,98392.84
2022-09-04T03:10:59.682Z,98393.34
2022-09-04T03:14:00.479Z,98393.19
2022-09-04T03:17:00.777Z,98391.66
2022-09-04T03:20:00.245Z,98395.19
2022-09-04T03:23:00.194Z,98385.13
2022-09-04T03:26:19.374Z,98404.22
2022-09-04T03:29:27.623Z,98398.38
2022-09-04T03:32:29.230Z,98397.84
2022-09-04T03:35:31.321Z,98405.19
2022-09-04T03:38:29.705Z,98408.03
2022-09-04T03:41:35.658Z,98410.03
2022-09-04T03:44:41.406Z,98415.38
2022-09-04T03:47:47.991Z,98410.03
2022-09-04T03:50:48.604Z,98405.88
2022-09-04T03:53:45.348Z,98409.38
2022-09-04T03:57:10.615Z,98411.22
2022-09-04T04:00:10.142Z,98409.56
2022-09-04T04:03:41.947Z,98411.72
2022-09-04T04:06:44.321Z,98415.59
2022-09-04T04:09:54.738Z,98414.75
2022-09-04T04:13:31.427Z,98422.13
2022-09-04T04:16:42.475Z,98429.63
2022-09-04T04:20:02.762Z,98430.31
2022-09-04T04:23:25.165Z,98432.00
2022-09-04T04:26:22.763Z,98431.31
2022-09-04T04:29:40.702Z,98439.34
2022-09-04T04:33:10.667Z,98435.50
2022-09-04T04:36:15.401Z,98444.03
2022-09-04T04:39:30.242Z,98443.53
2022-09-04T04:42:30.172Z,98449.41
2022-09-04T04:45:46.658Z,98450.53
2022-09-04T04:49:26.106Z,98457.06
2022-09-04T04:52:50.158Z,98474.91
2022-09-04T04:55:51.508Z,98477.25
2022-09-04T04:58:59.320Z,98479.25
2022-09-04T05:02:07.727Z,98488.94
2022-09-04T05:05:13.080Z,98487.13
2022-09-04T05:08:17.389Z,98499.09
2022-09-04T05:11:18.465Z,98500.78
2022-09-04T05:14:27.297Z,98500.13
2022-09-04T05:17:34.800Z,98498.09
2022-09-04T05:20:41.827Z,98496.13
2022-09-04T05:23:46.660Z,98494.59
2022-09-04T05:26:53.977Z,98509.13
2022-09-04T05:29:56.793Z,98508.44
2022-09-04T05:33:00.140Z,98516.78
2022-09-04T05:35:57.352Z,98529.78
2022-09-04T05:39:09.656Z,98528.78
2022-09-04T05:42:39.135Z,98541.13
2022-09-04T05:45:47.781Z,98541.94
2022-09-04T05:48:53.158Z,98537.44
2022-09-04T05:52:33.185Z,98552.47
2022-09-04T05:55:54.767Z,98561.28
2022-09-04T05:59:13.737Z,98562.44
2022-09-04T06:02:28.301Z,98558.78
2022-09-04T06:05:32.908Z,98567.44
2022-09-04T06:08:41.342Z,98573.81
2022-09-04T06:11:56.720Z,98577.13
2022-09-04T06:15:27.178Z,98579.16
2022-09-04T06:18:43.444Z,98574.63
2022-09-04T06:22:08.339Z,98587.31
2022-09-04T06:25:33.967Z,98588.28
2022-09-04T06:28:56.852Z,98595.97
2022-09-04T06:32:14.433Z,98598.00
2022-09-04T06:35:47.056Z,98594.44
2022-09-04T06:38:52.971Z,98601.63
2022-09-04T06:42:05.884Z,98596.41
2022-09-04T06:45:21.329Z,98612.56
2022-09-04T06:48:25.259Z,98620.09
2022-09-04T06:51:46.381Z,98619.41
2022-09-04T06:54:55.254Z,98619.03
2022-09-04T06:58:24.476Z,98626.81
2022-09-04T07:01:26.222Z,98626.28
2022-09-04T07:04:37.100Z,98627.59
2022-09-04T07:07:38.905Z,98628.34
2022-09-04T07:10:34.765Z,98635.09
2022-09-04T07:14:17.422Z,98643.22
2022-09-04T07:17:19.174Z,98654.22
2022-09-04T07:20:22.150Z,98652.31
2022-09-04T07:23:28.720Z,98661.28
2022-09-04T07:26:28.266Z,98659.91
2022-09-04T07:29:34.672Z,98670.50
2022-09-04T07:32:39.277Z,98665.66
2022-09-04T07:35:38.764Z,98667.69
2022-09-04T07:38:38.783Z,98668.44
2022-09-04T07:41:44.188Z,98664.63
2022-09-04T07:44:46.804Z,98662.22
2022-09-04T07:47:45.094Z,98671.56
2022-09-04T07:50:40.290Z,98666.06
2022-09-04T07:53:55.922Z,98677.22
2022-09-04T07:57:11.200Z,98670.34
2022-09-04T08:00:09.044Z,98669.81
2022-09-04T08:03:30.444Z,98664.28
2022-09-04T08:06:29.453Z,98669.03
2022-09-04T08:10:07.623Z,98658.13
2022-09-04T08:13:33.646Z,98667.41
2022-09-04T08:16:31.656Z,98661.50
2022-09-04T08:19:42.949Z,98668.81
2022-09-04T08:22:46.672Z,98673.47
2022-09-04T08:25:55.993Z,98667.81
2022-09-04T08:29:09.193Z,98649.19
2022-09-04T08:32:18.271Z,98654.66
2022-09-04T08:35:23.261Z,98650.19
2022-09-04T08:38:39.497Z,98634.84
2022-09-04T08:42:29.103Z,98643.16
2022-09-04T08:46:30.011Z,98633.22
2022-09-04T08:50:10.496Z,98627.38
2022-09-04T08:53:41.228Z,98631.50
2022-09-04T08:56:41.966Z,98631.25
2022-09-04T09:00:08.451Z,98632.09
2022-09-04T09:03:57.486Z,98627.91
2022-09-04T09:07:42.490Z,98616.69
2022-09-04T09:11:02.208Z,98615.28
2022-09-04T09:14:59.540Z,98611.44
2022-09-04T09:18:03.717Z,98605.53
2022-09-04T09:21:02.423Z,98604.75
2022-09-04T09:24:38.992Z,98612.94
2022-09-04T09:28:20.080Z,98604.53
2022-09-04T09:32:08.454Z,98616.03
2022-09-04T09:35:57.970Z,98615.22
2022-09-04T09:39:37.722Z,98614.13
2022-09-04T09:43:01.889Z,98609.72
2022-09-04T09:46:39.335Z,98603.75
2022-09-04T09:50:06.279Z,98609.22
2022-09-04T09:53:50.262Z,98609.38
2022-09-04T09:57:03.424Z,98603.28
2022-09-04T10:00:15.255Z,98604.84
2022-09-04T10:03:49.898Z,98597.78
2022-09-04T10:07:48.940Z,98600.84
2022-09-04T10:11:25.718Z,98595.59
2022-09-04T10:15:04.922Z,98599.22
2022-09-04T10:18:26.594Z,98586.34
2022-09-04T10:22:20.571Z,98583.72
2022-09-04T10:25:35.160Z,98576.09
2022-09-04T10:29:28.760Z,98582.09
2022-09-04T10:33:09.244Z,98584.81
2022-09-04T10:36:30.084Z,98596.78
2022-09-04T10:39:55.184Z,98581.78
2022-09-04T10:43:10.139Z,98580.50
2022-09-04T10:46:08.472Z,98573.84
2022-09-04T10:49:40.932Z,98575.88
2022-09-04T10:52:51.596Z,98567.88
2022-09-04T10:56:16.221Z,98574.16
2022-09-04T10:59:32.134Z,98559.00
2022-09-04T11:03:05.048Z,98566.06
2022-09-04T11:06:35.890Z,98560.22
2022-09-04T11:09:36.385Z,98566.66
2022-09-04T11:12:52.990Z,98567.41
2022-09-04T11:16:01.266Z,98565.19
2022-09-04T11:19:20.978Z,98559.09
2022-09-04T11:22:55.214Z,98559.66
2022-09-04T11:26:18.701Z,98552.16
2022-09-04T11:29:33.880Z,98552.53
2022-09-04T11:33:02.981Z,98548.41
2022-09-04T11:36:35.508Z,98546.00
2022-09-04T11:40:04.372Z,98543.00
2022-09-04T11:43:19.726Z,98548.94
2022-09-04T11:46:35.553Z,98551.47
2022-09-04T11:49:54.395Z,98551.16
2022-09-04T11:53:24.942Z,98560.56
2022-09-04T11:56:47.682Z,98560.09
2022-09-04T12:00:09.921Z,98552.50
2022-09-04T12:03:37.605Z,98552.59
2022-09-04T12:06:43.529Z,98543.41
2022-09-04T12:10:27.262Z,98539.88
2022-09-04T12:14:19.655Z,98547.91
2022-09-04T12:17:51.689Z,98547.53
2022-09-04T12:21:48.820Z,98547.03
2022-09-04T12:25:14.866Z,98548.75
2022-09-04T12:28:48.293Z,98546.41
2022-09-04T12:32:35.379Z,98546.28
2022-09-04T12:36:14.398Z,98539.94
2022-09-04T12:40:00.411Z,98536.03
2022-09-04T12:43:05.886Z,98541.38
2022-09-04T12:46:16.821Z,98534.28
2022-09-04T12:49:44.250Z,98535.91
2022-09-04T12:53:19.196Z,98533.28
2022-09-04T12:56:17.004Z,98524.25
2022-09-04T12:59:33.598Z,98535.53
2022-09-04T13:02:46.834Z,98530.56
2022-09-04T13:05:58.948Z,98534.31
2022-09-04T13:09:03.953Z,98538.97
2022-09-04T13:12:13.586Z,98546.91
2022-09-04T13:15:22.638Z,98535.56
2022-09-04T13:18:34.795Z,98541.44
2022-09-04T13:21:55.321Z,98534.25
2022-09-04T13:25:02.785Z,98537.16
2022-09-04T13:28:17.215Z,98537.91
2022-09-04T13:31:54.572Z,98543.31
2022-09-04T13:35:09.613Z,98540.78
2022-09-04T13:38:23.148Z,98535.22
2022-09-04T13:41:42.995Z,98537.50
2022-09-04T13:45:15.748Z,98535.84
2022-09-04T13:48:13.081Z,98530.91
2022-09-04T13:51:13.601Z,98536.53
2022-09-04T13:54:10.594Z,98531.94
2022-09-04T13:57:09.826Z,98538.63
2022-09-04T14:00:03.935Z,98524.00
2022-09-04T14:03:01.875Z,98539.94
2022-09-04T14:05:52.443Z,98539.31
2022-09-04T14:08:44.422Z,98531.53
2022-09-04T14:12:24.805Z,98535.63
2022-09-04T14:16:02.526Z,98537.88
2022-09-04T14:19:15.647Z,98537.97
2022-09-04T14:22:42.240Z,98546.84
2022-09-04T14:25:40.613Z,98547.28
2022-09-04T14:28:44.761Z,98547.63
2022-09-04T14:31:49.001Z,98554.91
2022-09-04T14:35:02.161Z,98554.38
2022-09-04T14:38:41.205Z,98555.56
2022-09-04T14:41:48.396Z,98557.44
2022-09-04T14:44:59.887Z,98558.25
2022-09-04T14:47:55.920Z,98561.66
2022-09-04T14:50:51.969Z,98553.38
2022-09-04T14:53:49.312Z,98557.75
2022-09-04T14:56:47.976Z,98551.56
2022-09-04T14:59:45.204Z,98555.03
2022-09-04T15:02:43.774Z,98560.13
2022-09-04T15:05:39.788Z,98563.53
2022-09-04T15:08:38.096Z,98553.50
2022-09-04T15:11:35.555Z,98563.47
2022-09-04T15:14:34.558Z,98572.38
2022-09-04T15:17:30.200Z,98572.69
2022-09-04T15:20:25.037Z,98576.31
2022-09-04T15:23:28.666Z,98575.00
2022-09-04T15:26:29.387Z,98575.81
2022-09-04T15:29:28.950Z,98570.84
2022-09-04T15:32:24.848Z,98565.66
2022-09-04T15:35:22.934Z,98574.69
2022-09-04T15:38:21.270Z,98581.47
2022-09-04T15:41:25.953Z,98581.44
2022-09-04T15:44:29.728Z,98586.31
2022-09-04T15:47:43.415Z,98585.72
2022-09-04T15:50:41.306Z,98583.41
2022-09-04T15:53:34.527Z,98577.31
2022-09-04T15:56:36.927Z,98579.09
2022-09-04T15:59:43.701Z,98575.44
2022-09-04T16:02:46.396Z,98578.06
2022-09-04T16:05:47.055Z,98576.88
2022-09-04T16:08:47.021Z,98573.47
2022-09-04T16:11:46.717Z,98570.94
2022-09-04T16:14:45.379Z,98577.66
2022-09-04T16:17:45.308Z,98565.28
2022-09-04T16:20:40.784Z,98574.78
2022-09-04T16:23:33.677Z,98567.63
2022-09-04T16:26:32.346Z,98571.94
2022-09-04T16:29:36.335Z,98573.22
2022-09-04T16:32:31.798Z,98573.69
2022-09-04T16:35:23.858Z,98572.84
2022-09-04T16:38:22.162Z,98570.09
2022-09-04T16:41:19.357Z,98572.25
2022-09-04T16:44:26.260Z,98579.88
2022-09-04T16:47:27.162Z,98572.19
2022-09-04T16:50:27.287Z,98567.88
2022-09-04T16:53:24.365Z,98569.06
2022-09-04T16:56:36.948Z,98574.38
2022-09-04T16:59:37.953Z,98564.91
2022-09-04T17:02:45.030Z,98573.03
2022-09-04T17:05:46.913Z,98575.09
2022-09-04T17:08:44.186Z,98579.06
2022-09-04T17:11:44.192Z,98584.06
2022-09-04T17:14:53.495Z,98580.31
2022-09-04T17:17:47.219Z,98578.16
2022-09-04T17:21:59.700Z,98582.00
2022-09-04T17:29:04.280Z,98586.56
2022-09-04T17:29:15.234Z,98582.94
2022-09-04T17:30:40.231Z,98582.88
2022-09-04T17:40:38.299Z,98582.97
2022-09-04T17:40:43.843Z,98583.06
2022-09-04T17:40:48.848Z,98589.34
2022-09-04T17:44:01.848Z,98590.47
2022-09-04T17:47:08.107Z,98598.47
2022-09-04T17:50:00.246Z,98600.50
2022-09-04T17:52:59.803Z,98604.50
2022-09-04T17:55:54.305Z,98605.69
2022-09-04T17:58:53.631Z,98618.56
2022-09-04T18:01:59.140Z,98613.47
2022-09-04T18:04:58.090Z,98609.13
2022-09-04T18:08:08.992Z,98621.34
2022-09-04T18:11:09.022Z,98617.03
2022-09-04T18:14:11.316Z,98622.72
2022-09-04T18:17:11.659Z,98629.81
2022-09-04T18:20:16.088Z,98637.94
2022-09-04T18:23:52.460Z,98632.97
2022-09-04T18:26:50.629Z,98636.25
2022-09-04T18:32:47.206Z,98642.66
2022-09-04T18:37:16.436Z,98641.53
2022-09-04T18:37:23.854Z,98643.16
2022-09-04T18:39:51.619Z,98638.50
2022-09-04T18:50:23.024Z,98656.88
2022-09-04T18:50:28.114Z,98656.44
2022-09-04T18:50:48.581Z,98654.47
2022-09-04T18:52:51.339Z,98673.97
2022-09-04T18:55:53.113Z,98667.97
2022-09-04T18:58:54.415Z,98672.41
2022-09-04T19:01:50.750Z,98675.91
2022-09-04T19:04:51.075Z,98678.44
2022-09-04T19:07:48.140Z,98681.59
2022-09-04T19:10:48.159Z,98689.50
2022-09-04T19:13:46.342Z,98691.78
2022-09-04T19:16:42.019Z,98691.78
2022-09-04T19:19:40.975Z,98693.47
2022-09-04T19:22:43.597Z,98695.06
2022-09-04T19:25:41.729Z,98693.59
2022-09-04T19:28:53.206Z,98703.13
2022-09-04T19:31:53.510Z,98699.16
2022-09-04T19:34:52.615Z,98699.56
2022-09-04T19:44:25.562Z,98699.94
2022-09-04T19:46:08.224Z,98706.97
2022-09-04T19:46:16.780Z,98706.50
2022-09-04T19:47:50.516Z,98704.34
2022-09-04T19:53:19.617Z,98702.66
2022-09-04T19:54:07.130Z,98714.00
2022-09-04T19:57:32.380Z,98706.72
2022-09-04T20:00:42.678Z,98708.75
2022-09-04T20:03:46.395Z,98702.88
2022-09-04T20:06:47.252Z,98706.38
2022-09-04T20:09:46.677Z,98707.16
2022-09-04T20:12:48.941Z,98716.41
2022-09-04T20:15:55.834Z,98711.81
2022-09-04T20:18:53.437Z,98709.25
2022-09-04T20:21:49.212Z,98710.06
2022-09-04T20:25:01.269Z,98714.09
2022-09-04T20:27:58.289Z,98725.22
2022-09-04T20:31:28.426Z,98711.50
2022-09-04T20:34:36.038Z,98711.66
2022-09-04T20:37:33.910Z,98713.69
2022-09-04T20:40:35.933Z,98715.69
2022-09-04T20:43:40.782Z,98719.16
2022-09-04T20:52:45.669Z,98719.09
2022-09-04T20:52:50.861Z,98727.75
2022-09-04T20:53:24.458Z,98720.63
2022-09-04T20:57:44.913Z,98727.59
2022-09-04T21:03:23.005Z,98732.03
2022-09-04T21:03:28.025Z,98736.34
2022-09-04T21:06:32.854Z,98737.09
2022-09-04T21:09:54.725Z,98730.63
2022-09-04T21:13:13.815Z,98739.22
2022-09-04T21:16:15.299Z,98728.41
2022-09-04T21:19:42.171Z,98737.84
2022-09-04T21:22:55.804Z,98740.28
2022-09-04T21:26:00.096Z,98741.81
2022-09-04T21:29:29.540Z,98736.75
2022-09-04T21:32:48.531Z,98740.84
2022-09-04T21:35:48.175Z,98743.91
2022-09-04T21:39:23.949Z,98751.03
2022-09-04T21:42:51.964Z,98750.56
2022-09-04T21:46:07.738Z,98754.16
2022-09-04T21:49:37.806Z,98753.69
2022-09-04T21:52:56.871Z,98763.31
2022-09-04T22:02:25.195Z,98768.41
2022-09-04T22:02:46.079Z,98770.34
2022-09-04T22:03:35.330Z,98774.56
2022-09-04T22:10:19.562Z,98772.44
2022-09-04T22:13:37.242Z,98772.97
2022-09-04T22:14:03.305Z,98767.34
2022-09-04T22:17:15.158Z,98772.38
2022-09-04T22:20:49.114Z,98776.63
2022-09-04T22:24:33.152Z,98777.16
2022-09-04T22:28:07.411Z,98782.25
2022-09-04T22:31:45.141Z,98774.91
2022-09-04T22:35:36.500Z,98786.34
2022-09-04T22:38:56.902Z,98780.50
2022-09-04T22:42:34.362Z,98782.91
2022-09-04T22:46:14.994Z,98783.25
2022-09-04T22:49:47.342Z,98779.25
2022-09-04T22:53:06.477Z,98784.31
2022-09-04T22:56:23.613Z,98779.31
2022-09-04T22:59:58.469Z,98779.84
2022-09-04T23:03:36.219Z,98788.59
2022-09-04T23:13:20.685Z,98782.75
2022-09-04T23:13:49.103Z,98787.13
2022-09-04T23:14:07.690Z,98781.78
2022-09-04T23:17:32.854Z,98786.00
2022-09-04T23:26:34.844Z,98785.34
2022-09-04T23:26:57.688Z,98786.06
2022-09-04T23:27:52.542Z,98792.56
2022-09-04T23:30:53.218Z,98783.41
2022-09-04T23:34:10.168Z,98789.94
2022-09-04T23:37:32.972Z,98779.06
2022-09-04T23:40:39.151Z,98784.75
2022-09-04T23:44:25.797Z,98793.31
2022-09-04T23:48:06.550Z,98790.16
2022-09-04T23:51:05.248Z,98779.63
2022-09-04T23:54:31.118Z,98779.47
2022-09-04T23:57:29.568Z,98779.13
